Time;durP1;ratioP1;P1;durP2;ratioP2;P2;SDS_P1;SDS_P2;PMS_P1;PMS_P2;Temp;Humidity;BMP_temperature;BMP_pressure;BME280_temperature;BME280_humidity;BME280_pressure;Samples;Min_cycle;Max_cycle;Signal;HPM_P1;HPM_P2
2022/05/22 00:00:34;;;;;;;4.70;2.85;;;;;;;;;;5019047;28;88445;-71
2022/05/22 00:03:01;;;;;;;7.07;2.83;;;;;;;;;;5003848;28;88561;-72
2022/05/22 00:05:27;;;;;;;8.65;2.85;;;;;;;;;;5017232;28;87751;-74
2022/05/22 00:07:53;;;;;;;7.03;2.65;;;;;;;;;;5000447;28;88353;-72
2022/05/22 00:10:20;;;;;;;6.82;2.88;;;;;;;;;;5016284;28;90172;-72
2022/05/22 00:12:46;;;;;;;8.13;2.60;;;;;;;;;;5000662;28;88810;-72
2022/05/22 00:15:13;;;;;;;4.45;2.40;;;;;;;;;;5021843;28;89518;-72
2022/05/22 00:17:40;;;;;;;7.22;2.90;;;;;;;;;;4999087;28;89170;-72
2022/05/22 00:20:07;;;;;;;9.60;3.05;;;;;;;;;;5017471;28;88052;-72
2022/05/22 00:22:33;;;;;;;5.90;2.33;;;;;;;;;;4999779;28;91526;-73
2022/05/22 00:24:59;;;;;;;8.43;2.08;;;;;;;;;;5021883;28;87945;-73
2022/05/22 00:27:26;;;;;;;9.40;2.50;;;;;;;;;;5001808;28;88573;-73
2022/05/22 00:29:53;;;;;;;5.38;2.08;;;;;;;;;;5001862;28;88081;-72
2022/05/22 00:32:20;;;;;;;6.85;2.35;;;;;;;;;;5017751;28;88058;-71
2022/05/22 00:34:46;;;;;;;8.90;2.72;;;;;;;;;;5018468;28;89147;-73
2022/05/22 00:37:13;;;;;;;7.15;2.83;;;;;;;;;;5016309;28;89945;-72
2022/05/22 00:39:39;;;;;;;3.78;2.25;;;;;;;;;;5019161;28;89101;-72
2022/05/22 00:42:13;;;;;;;4.75;2.00;;;;;;;;;;5016779;28;88847;-72
2022/05/22 00:44:40;;;;;;;4.68;2.00;;;;;;;;;;5016929;28;88839;-72
2022/05/22 00:47:06;;;;;;;8.60;2.22;;;;;;;;;;5021894;28;88332;-72
2022/05/22 00:49:33;;;;;;;5.30;2.38;;;;;;;;;;5018101;28;89095;-73
2022/05/22 00:52:01;;;;;;;2.22;2.00;;;;;;;;;;5016880;28;88048;-74
2022/05/22 00:54:55;;;;;;;5.70;2.60;;;;;;;;;;5000814;28;88829;-73
2022/05/22 00:57:24;;;;;;;5.55;2.90;;;;;;;;;;5016714;28;88700;-73
2022/05/22 00:59:53;;;;;;;3.60;2.38;;;;;;;;;;5014222;28;88130;-72
2022/05/22 01:02:20;;;;;;;5.75;2.70;;;;;;;;;;5017089;28;88735;-72
2022/05/22 01:04:48;;;;;;;4.93;2.45;;;;;;;;;;5017564;28;89425;-72
2022/05/22 01:07:15;;;;;;;4.72;2.30;;;;;;;;;;5019573;28;87949;-72
2022/05/22 01:09:42;;;;;;;4.78;2.90;;;;;;;;;;5017254;28;88680;-72
2022/05/22 01:12:10;;;;;;;8.00;2.35;;;;;;;;;;5016458;28;90351;-74
2022/05/22 01:14:36;;;;;;;8.75;2.45;;;;;;;;;;5018949;28;89165;-72
2022/05/22 01:17:04;;;;;;;4.93;2.10;;;;;;;;;;5019969;28;88973;-72
2022/05/22 01:19:30;;;;;;;5.97;2.28;;;;;;;;;;5015943;28;87629;-72
2022/05/22 01:22:00;;;;;;;3.95;2.30;;;;;;;;;;5012742;28;88091;-72
2022/05/22 01:24:27;;;;;;;;;;;;;;;;;;5013709;28;88808;-72
2022/05/22 01:26:54;;;;;;;5.80;2.60;;;;;;;;;;5017068;28;118636;-72
2022/05/22 01:29:20;;;;;;;6.40;2.63;;;;;;;;;;5020022;28;89506;-72
2022/05/22 01:31:46;;;;;;;3.75;2.15;;;;;;;;;;5015717;28;88359;-73
2022/05/22 01:34:13;;;;;;;4.45;2.08;;;;;;;;;;4998722;28;88730;-73
2022/05/22 01:36:39;;;;;;;5.28;2.20;;;;;;;;;;5018116;28;88051;-72
2022/05/22 01:39:06;;;;;;;5.18;2.00;;;;;;;;;;5016331;28;87971;-72
2022/05/22 01:41:32;;;;;;;5.60;2.30;;;;;;;;;;4997184;28;88628;-73
2022/05/22 01:43:58;;;;;;;4.63;2.20;;;;;;;;;;5017405;28;88475;-72
2022/05/22 01:46:25;;;;;;;4.90;2.00;;;;;;;;;;4999972;28;88441;-72
2022/05/22 01:48:51;;;;;;;4.32;2.08;;;;;;;;;;5006695;28;88739;-72
2022/05/22 01:51:17;;;;;;;3.88;2.22;;;;;;;;;;5012970;28;90292;-72
2022/05/22 01:53:44;;;;;;;7.60;2.05;;;;;;;;;;5015988;28;89741;-72
2022/05/22 01:56:10;;;;;;;5.30;1.70;;;;;;;;;;4998046;28;88948;-73
2022/05/22 01:58:36;;;;;;;4.38;1.60;;;;;;;;;;5016736;28;87939;-75
2022/05/22 02:01:02;;;;;;;3.97;1.73;;;;;;;;;;5017668;28;88640;-74
2022/05/22 02:03:30;;;;;;;3.78;1.75;;;;;;;;;;5015806;28;89093;-73
2022/05/22 02:05:56;;;;;;;4.22;1.70;;;;;;;;;;5016949;28;87998;-73
2022/05/22 02:08:22;;;;;;;3.33;1.52;;;;;;;;;;5016633;28;88897;-73
2022/05/22 02:10:51;;;;;;;6.68;2.10;;;;;;;;;;5015421;28;89197;-72
2022/05/22 02:13:20;;;;;;;6.22;1.73;;;;;;;;;;5018333;28;87999;-72
2022/05/22 02:15:47;;;;;;;2.67;1.80;;;;;;;;;;5020607;28;90786;-72
2022/05/22 02:18:13;;;;;;;3.28;1.63;;;;;;;;;;5017956;28;88219;-73
2022/05/22 02:20:40;;;;;;;2.38;1.63;;;;;;;;;;5016850;28;88870;-72
2022/05/22 02:23:06;;;;;;;4.70;1.60;;;;;;;;;;4998247;28;88687;-72
2022/05/22 02:25:34;;;;;;;9.35;1.98;;;;;;;;;;5017526;28;88005;-72
2022/05/22 02:28:00;;;;;;;7.43;2.38;;;;;;;;;;4999924;28;88765;-73
2022/05/22 02:30:29;;;;;;;3.75;1.60;;;;;;;;;;5017438;28;88833;-72
2022/05/22 02:32:55;;;;;;;5.68;1.60;;;;;;;;;;5015251;28;88237;-73
2022/05/22 02:35:22;;;;;;;5.13;1.73;;;;;;;;;;5019701;28;88100;-72
2022/05/22 02:37:49;;;;;;;3.65;2.00;;;;;;;;;;5014866;28;89178;-73
2022/05/22 02:40:17;;;;;;;3.80;1.50;;;;;;;;;;4997806;28;88712;-73
2022/05/22 02:42:46;;;;;;;2.80;1.75;;;;;;;;;;5015230;28;89790;-73
2022/05/22 02:45:15;;;;;;;3.63;1.70;;;;;;;;;;5017065;28;88088;-72
2022/05/22 02:47:41;;;;;;;4.95;1.63;;;;;;;;;;5017179;28;88830;-72
2022/05/22 02:50:08;;;;;;;5.45;2.05;;;;;;;;;;4996056;28;89042;-73
2022/05/22 02:52:34;;;;;;;6.43;2.22;;;;;;;;;;4997598;28;88041;-73
2022/05/22 02:55:01;;;;;;;2.80;2.05;;;;;;;;;;4999964;28;88548;-73
2022/05/22 02:57:27;;;;;;;2.75;1.80;;;;;;;;;;5019915;28;88060;-72
2022/05/22 02:59:54;;;;;;;12.02;2.58;;;;;;;;;;5017326;28;88491;-73
2022/05/22 03:02:21;;;;;;;3.95;1.50;;;;;;;;;;5015095;28;88826;-73
2022/05/22 03:04:50;;;;;;;5.25;1.92;;;;;;;;;;5009217;28;90767;-73
2022/05/22 03:07:17;;;;;;;6.97;1.80;;;;;;;;;;5017432;28;89517;-73
2022/05/22 03:09:45;;;;;;;3.45;1.42;;;;;;;;;;5018345;28;89021;-73
2022/05/22 03:12:16;;;;;;;4.95;1.38;;;;;;;;;;5020525;28;88362;-73
2022/05/22 03:14:43;;;;;;;5.55;1.50;;;;;;;;;;5020682;28;88825;-73
2022/05/22 03:17:10;;;;;;;2.95;1.30;;;;;;;;;;5005143;28;89459;-73
2022/05/22 03:19:36;;;;;;;5.32;1.63;;;;;;;;;;5000141;28;88947;-74
2022/05/22 03:22:04;;;;;;;7.55;2.05;;;;;;;;;;5021070;28;87292;-73
2022/05/22 03:24:30;;;;;;;3.92;1.60;;;;;;;;;;5017095;28;88154;-72
2022/05/22 03:26:56;;;;;;;4.10;1.50;;;;;;;;;;5018781;28;88781;-73
2022/05/22 03:29:22;;;;;;;2.08;1.48;;;;;;;;;;5017587;28;89841;-72
2022/05/22 03:31:49;;;;;;;3.47;1.80;;;;;;;;;;5018640;28;88113;-72
2022/05/22 03:34:15;;;;;;;4.75;1.50;;;;;;;;;;5017775;28;88706;-72
2022/05/22 03:36:41;;;;;;;4.18;1.67;;;;;;;;;;5019220;28;90918;-72
2022/05/22 03:39:08;;;;;;;3.08;1.80;;;;;;;;;;5022268;28;88137;-73
2022/05/22 03:41:35;;;;;;;2.03;1.40;;;;;;;;;;5019549;28;89245;-72
2022/05/22 03:44:01;;;;;;;2.95;1.70;;;;;;;;;;5018513;28;88143;-72
2022/05/22 03:46:27;;;;;;;4.53;1.75;;;;;;;;;;5019980;28;88537;-72
2022/05/22 03:48:54;;;;;;;3.95;1.55;;;;;;;;;;5016236;28;90734;-73
2022/05/22 03:51:21;;;;;;;2.55;1.17;;;;;;;;;;4998920;28;88068;-73
2022/05/22 03:53:47;;;;;;;3.78;1.23;;;;;;;;;;5017009;28;90159;-72
2022/05/22 03:56:14;;;;;;;2.85;1.75;;;;;;;;;;5019962;28;89096;-73
2022/05/22 03:58:41;;;;;;;3.55;1.50;;;;;;;;;;5001014;28;88029;-72
2022/05/22 04:01:07;;;;;;;2.05;1.60;;;;;;;;;;5021758;28;88589;-73
2022/05/22 04:03:34;;;;;;;3.20;1.70;;;;;;;;;;5016919;28;88143;-73
2022/05/22 04:06:01;;;;;;;2.40;1.63;;;;;;;;;;5018513;28;88710;-72
2022/05/22 04:08:28;;;;;;;6.78;1.48;;;;;;;;;;5016415;28;93793;-73
2022/05/22 04:10:55;;;;;;;5.95;1.60;;;;;;;;;;5017324;28;91711;-72
2022/05/22 04:13:21;;;;;;;4.75;1.58;;;;;;;;;;5014639;28;93275;-73
2022/05/22 04:15:51;;;;;;;1.83;1.67;;;;;;;;;;5016427;28;93487;-72
2022/05/22 04:18:18;;;;;;;2.58;1.40;;;;;;;;;;5014231;28;94944;-72
2022/05/22 04:20:44;;;;;;;5.53;1.60;;;;;;;;;;5013467;28;95494;-72
2022/05/22 04:25:56;;;;;;;3.45;1.50;;;;;;;;;;5015597;28;93464;-72
2022/05/22 04:28:23;;;;;;;5.90;1.85;;;;;;;;;;5014583;28;93522;-72
2022/05/22 04:30:50;;;;;;;1.45;1.35;;;;;;;;;;5014795;28;92501;-72
2022/05/22 04:33:16;;;;;;;2.65;1.50;;;;;;;;;;5012805;28;93435;-71
2022/05/22 04:35:43;;;;;;;5.95;1.48;;;;;;;;;;4999086;28;92802;-72
2022/05/22 04:38:10;;;;;;;3.75;1.60;;;;;;;;;;4998002;28;92649;-71
2022/05/22 04:40:37;;;;;;;7.20;1.90;;;;;;;;;;5016058;28;93228;-73
2022/05/22 04:43:04;;;;;;;3.85;1.77;;;;;;;;;;5011377;28;96039;-73
2022/05/22 04:45:31;;;;;;;3.45;1.55;;;;;;;;;;4999879;28;92914;-72
2022/05/22 04:47:57;;;;;;;3.58;1.70;;;;;;;;;;4991929;28;93465;-72
2022/05/22 04:50:24;;;;;;;3.35;1.42;;;;;;;;;;5001299;28;92507;-72
2022/05/22 04:52:50;;;;;;;1.35;1.17;;;;;;;;;;5014527;28;93598;-72
2022/05/22 04:55:17;;;;;;;9.05;1.92;;;;;;;;;;4993896;28;93519;-72
2022/05/22 04:57:43;;;;;;;2.40;1.40;;;;;;;;;;5014545;28;92903;-72
2022/05/22 05:00:10;;;;;;;2.72;1.63;;;;;;;;;;5014996;28;93136;-72
2022/05/22 05:02:37;;;;;;;6.47;2.00;;;;;;;;;;5015176;28;93963;-72
2022/05/22 05:05:05;;;;;;;7.22;1.80;;;;;;;;;;5016460;28;92375;-72
2022/05/22 05:07:32;;;;;;;3.85;1.30;;;;;;;;;;5015593;28;94919;-72
2022/05/22 05:09:59;;;;;;;3.97;1.80;;;;;;;;;;4997629;28;92566;-72
2022/05/22 05:12:25;;;;;;;5.25;1.83;;;;;;;;;;5013764;28;92471;-72
2022/05/22 05:14:51;;;;;;;3.30;1.67;;;;;;;;;;4996328;28;93246;-72
2022/05/22 05:17:18;;;;;;;6.10;1.95;;;;;;;;;;5014180;28;92514;-72
2022/05/22 05:19:44;;;;;;;3.58;1.73;;;;;;;;;;5015109;28;93118;-73
2022/05/22 05:22:11;;;;;;;8.98;2.30;;;;;;;;;;5014682;28;93019;-73
2022/05/22 05:24:38;;;;;;;4.03;1.70;;;;;;;;;;5010580;28;93875;-73
2022/05/22 05:27:04;;;;;;;5.35;2.17;;;;;;;;;;5017317;28;93942;-72
2022/05/22 05:29:51;;;;;;;4.00;1.90;;;;;;;;;;5014135;28;92534;-72
2022/05/22 05:32:17;;;;;;;9.93;2.80;;;;;;;;;;5011609;28;94880;-72
2022/05/22 05:34:44;;;;;;;5.47;2.63;;;;;;;;;;5015008;28;93441;-72
2022/05/22 05:37:10;;;;;;;5.05;2.30;;;;;;;;;;5014550;28;92535;-72
2022/05/22 05:39:36;;;;;;;5.60;2.83;;;;;;;;;;4995611;28;92949;-73
2022/05/22 05:42:03;;;;;;;6.50;3.05;;;;;;;;;;5012196;28;93856;-73
2022/05/22 05:44:29;;;;;;;11.75;3.20;;;;;;;;;;4996194;28;92481;-72
2022/05/22 05:46:56;;;;;;;8.55;3.25;;;;;;;;;;4996452;28;93241;-73
2022/05/22 05:49:22;;;;;;;15.32;3.97;;;;;;;;;;5018209;28;91995;-73
2022/05/22 05:51:48;;;;;;;8.07;3.25;;;;;;;;;;5001496;28;93178;-73
2022/05/22 05:54:14;;;;;;;11.75;3.97;;;;;;;;;;4996080;28;94002;-73
2022/05/22 05:56:41;;;;;;;14.60;4.70;;;;;;;;;;5011683;28;94864;-73
2022/05/22 05:59:07;;;;;;;8.20;4.43;;;;;;;;;;4996690;28;95581;-73
2022/05/22 06:01:34;;;;;;;12.60;4.93;;;;;;;;;;5013046;28;93593;-74
2022/05/22 06:04:01;;;;;;;11.90;4.95;;;;;;;;;;4992007;28;93764;-73
2022/05/22 06:06:27;;;;;;;10.60;4.90;;;;;;;;;;4997068;28;93022;-73
2022/05/22 06:08:55;;;;;;;10.30;5.00;;;;;;;;;;5013906;28;93282;-73
2022/05/22 06:11:22;;;;;;;12.25;4.82;;;;;;;;;;5016195;28;92457;-73
2022/05/22 06:13:52;;;;;;;15.38;5.22;;;;;;;;;;4996491;28;92697;-73
2022/05/22 06:16:19;;;;;;;16.73;5.45;;;;;;;;;;5013259;28;92420;-73
2022/05/22 06:18:45;;;;;;;18.67;6.78;;;;;;;;;;5013990;28;92340;-72
2022/05/22 06:21:13;;;;;;;13.27;5.78;;;;;;;;;;5010050;28;96248;-73
2022/05/22 06:23:40;;;;;;;18.08;5.78;;;;;;;;;;4992546;28;92941;-73
2022/05/22 06:26:06;;;;;;;12.40;5.82;;;;;;;;;;4976174;28;93350;-73
2022/05/22 06:28:33;;;;;;;17.60;5.82;;;;;;;;;;5010769;28;93973;-73
2022/05/22 06:30:59;;;;;;;16.25;5.90;;;;;;;;;;4996760;28;92444;-72
2022/05/22 06:33:26;;;;;;;16.15;5.40;;;;;;;;;;4998229;28;93328;-72
2022/05/22 06:35:52;;;;;;;19.83;5.90;;;;;;;;;;5012853;28;92478;-73
2022/05/22 06:41:04;;;;;;;14.88;6.07;;;;;;;;;;5011738;28;93746;-72
2022/05/22 06:43:31;;;;;;;14.80;5.82;;;;;;;;;;5013834;28;92721;-72
2022/05/22 06:45:57;;;;;;;17.10;6.28;;;;;;;;;;5011727;28;94865;-71
2022/05/22 06:48:23;;;;;;;26.58;6.25;;;;;;;;;;4996517;28;93487;-72
2022/05/22 06:50:50;;;;;;;17.75;6.05;;;;;;;;;;5014065;28;92538;-71
2022/05/22 06:53:16;;;;;;;11.35;5.57;;;;;;;;;;4997042;28;92969;-71
2022/05/22 06:55:42;;;;;;;15.02;5.63;;;;;;;;;;5015565;28;93807;-72
2022/05/22 06:58:08;;;;;;;23.02;6.47;;;;;;;;;;5014181;28;93211;-72
2022/05/22 07:00:35;;;;;;;19.45;6.82;;;;;;;;;;4994272;28;94056;-72
2022/05/22 07:03:02;;;;;;;20.40;7.75;;;;;;;;;;5014477;28;91762;-71
2022/05/22 07:05:28;;;;;;;20.70;7.72;;;;;;;;;;4994917;28;93686;-71
2022/05/22 07:07:54;;;;;;;17.10;6.75;;;;;;;;;;5011897;28;93745;-72
2022/05/22 07:11:38;;;;;;;15.15;5.78;;;;;;;;;;5011025;28;94740;-71
2022/05/22 07:13:07;;;;;;;15.90;6.15;;;;;;;;;;5013162;28;95626;-71
2022/05/22 07:15:33;;;;;;;11.88;5.80;;;;;;;;;;5012128;28;93494;-71
2022/05/22 07:18:00;;;;;;;17.30;6.30;;;;;;;;;;5015453;28;92484;-72
2022/05/22 07:20:27;;;;;;;21.90;7.22;;;;;;;;;;4990947;28;93593;-72
2022/05/22 07:22:53;;;;;;;21.20;5.72;;;;;;;;;;5011920;28;92623;-71
2022/05/22 07:25:21;;;;;;;17.67;5.95;;;;;;;;;;5011238;28;93679;-72
2022/05/22 07:27:48;;;;;;;20.50;6.72;;;;;;;;;;4996748;28;92495;-72
2022/05/22 07:30:14;;;;;;;18.17;6.18;;;;;;;;;;5013208;28;92430;-71
2022/05/22 07:32:40;;;;;;;15.18;5.63;;;;;;;;;;5013974;28;93444;-72
2022/05/22 07:35:07;;;;;;;14.18;4.65;;;;;;;;;;5011309;28;95859;-71
2022/05/22 07:37:33;;;;;;;12.73;4.32;;;;;;;;;;5017122;28;92369;-76
2022/05/22 07:39:59;;;;;;;17.75;4.32;;;;;;;;;;5014230;28;93112;-73
2022/05/22 07:42:26;;;;;;;13.10;5.03;;;;;;;;;;5013736;28;92438;-73
2022/05/22 07:44:52;;;;;;;14.00;4.30;;;;;;;;;;4995030;28;93485;-73
2022/05/22 07:47:18;;;;;;;13.43;3.75;;;;;;;;;;5012506;28;93818;-73
2022/05/22 07:52:30;;;;;;;12.05;3.88;;;;;;;;;;5014186;28;93264;-73
2022/05/22 07:54:57;;;;;;;22.55;4.30;;;;;;;;;;4997192;28;93932;-72
2022/05/22 07:57:23;;;;;;;13.05;3.95;;;;;;;;;;4983241;28;92957;-72
2022/05/22 07:59:49;;;;;;;15.50;3.67;;;;;;;;;;5001054;28;94731;-71
2022/05/22 08:02:16;;;;;;;15.05;3.42;;;;;;;;;;5015693;28;92801;-72
2022/05/22 08:04:43;;;;;;;13.30;3.13;;;;;;;;;;4999165;28;93355;-72
2022/05/22 08:07:09;;;;;;;11.02;3.22;;;;;;;;;;4998848;28;92446;-74
2022/05/22 08:09:36;;;;;;;10.95;3.10;;;;;;;;;;4998864;28;92571;-72
2022/05/22 08:12:03;;;;;;;9.70;2.95;;;;;;;;;;5014842;28;93570;-73
2022/05/22 08:14:29;;;;;;;10.68;3.58;;;;;;;;;;5016293;28;92583;-74
2022/05/22 08:17:00;;;;;;;9.32;3.63;;;;;;;;;;5013204;28;91895;-73
2022/05/22 08:19:27;;;;;;;11.75;3.40;;;;;;;;;;5017101;28;92680;-73
2022/05/22 08:21:53;;;;;;;14.25;2.78;;;;;;;;;;5019318;28;93457;-72
2022/05/22 08:24:19;;;;;;;9.15;2.53;;;;;;;;;;5015233;28;95006;-73
2022/05/22 08:26:45;;;;;;;11.80;3.03;;;;;;;;;;5016345;28;93435;-72
2022/05/22 08:29:12;;;;;;;11.05;2.63;;;;;;;;;;5016908;28;92500;-73
2022/05/22 08:31:38;;;;;;;12.35;2.85;;;;;;;;;;4997043;28;93247;-72
2022/05/22 08:34:04;;;;;;;11.00;2.85;;;;;;;;;;5014208;28;93255;-72
2022/05/22 08:36:31;;;;;;;18.85;3.88;;;;;;;;;;5016527;28;92482;-73
2022/05/22 08:38:57;;;;;;;10.75;3.40;;;;;;;;;;5016723;28;93122;-72
2022/05/22 08:41:29;;;;;;;14.50;3.00;;;;;;;;;;5016477;28;92620;-72
2022/05/22 08:44:08;;;;;;;10.30;2.88;;;;;;;;;;5019551;28;92348;-72
2022/05/22 08:46:35;;;;;;;11.60;3.10;;;;;;;;;;5016168;28;93457;-72
2022/05/22 08:49:16;;;;;;;19.70;2.88;;;;;;;;;;5000900;28;94851;-72
2022/05/22 08:51:44;;;;;;;8.52;2.83;;;;;;;;;;4996254;28;95881;-72
2022/05/22 08:54:22;;;;;;;11.45;3.10;;;;;;;;;;4996078;28;93564;-73
2022/05/22 08:59:36;;;;;;;10.32;3.25;;;;;;;;;;5009217;28;93039;-72
2022/05/22 09:02:12;;;;;;;9.93;2.63;;;;;;;;;;4996134;28;93476;-72
2022/05/22 09:04:41;;;;;;;10.25;2.60;;;;;;;;;;5015757;28;92705;-73
2022/05/22 09:07:07;;;;;;;13.05;2.75;;;;;;;;;;4981843;28;94067;-73
2022/05/22 09:09:35;;;;;;;13.95;3.40;;;;;;;;;;5015621;28;92486;-72
2022/05/22 09:12:20;;;;;;;15.10;3.15;;;;;;;;;;5014870;28;93624;-73
2022/05/22 09:15:01;;;;;;;9.50;2.22;;;;;;;;;;5012764;28;96432;-72
2022/05/22 09:17:31;;;;;;;9.82;2.40;;;;;;;;;;4996469;28;92418;-73
2022/05/22 09:20:10;;;;;;;7.53;2.47;;;;;;;;;;4996185;28;94268;-74
2022/05/22 09:23:05;;;;;;;10.25;2.33;;;;;;;;;;5011590;28;93855;-72
2022/05/22 09:25:42;;;;;;;11.88;3.95;;;;;;;;;;4973123;28;92567;-72
2022/05/22 09:28:11;;;;;;;7.28;1.95;;;;;;;;;;4975899;28;93348;-73
2022/05/22 09:30:45;;;;;;;7.55;2.13;;;;;;;;;;4973220;28;92458;-73
2022/05/22 09:33:22;;;;;;;16.90;3.20;;;;;;;;;;4973863;28;93340;-72
2022/05/22 09:35:49;;;;;;;10.52;1.80;;;;;;;;;;4955389;28;93554;-72
2022/05/22 09:38:28;;;;;;;4.13;1.73;;;;;;;;;;4973511;28;92631;-72
2022/05/22 09:41:18;;;;;;;8.20;2.50;;;;;;;;;;4971946;28;94935;-73
2022/05/22 09:43:56;;;;;;;12.40;1.98;;;;;;;;;;4913556;28;93480;-73
2022/05/22 09:46:41;;;;;;;8.95;1.88;;;;;;;;;;4914568;28;92518;-72
2022/05/22 09:49:43;;;;;;;9.75;1.90;;;;;;;;;;4914368;28;93158;-72
2022/05/22 09:52:18;;;;;;;5.97;1.80;;;;;;;;;;4879309;28;93264;-72
2022/05/22 09:54:50;;;;;;;9.93;2.47;;;;;;;;;;4876373;28;93224;-73
2022/05/22 09:57:25;;;;;;;9.48;2.17;;;;;;;;;;4876619;28;93755;-72
2022/05/22 10:00:10;;;;;;;7.55;1.50;;;;;;;;;;4876508;28;91761;-72
2022/05/22 10:02:39;;;;;;;6.50;1.92;;;;;;;;;;4889378;28;92731;-72
2022/05/22 10:05:12;;;;;;;13.27;2.70;;;;;;;;;;4895408;28;93405;-73
2022/05/22 10:07:47;;;;;;;5.65;1.50;;;;;;;;;;4892330;28;94874;-72
2022/05/22 10:10:19;;;;;;;9.95;1.98;;;;;;;;;;4895301;28;95656;-72
2022/05/22 10:13:05;;;;;;;5.20;1.88;;;;;;;;;;4895302;28;93033;-72
2022/05/22 10:15:40;;;;;;;7.65;1.80;;;;;;;;;;4899475;28;97980;-72
2022/05/22 10:18:16;;;;;;;5.25;2.30;;;;;;;;;;4875630;28;93454;-72
2022/05/22 10:20:50;;;;;;;8.38;1.95;;;;;;;;;;4900917;28;92522;-73
2022/05/22 10:23:35;;;;;;;7.47;1.85;;;;;;;;;;4933977;28;92963;-72
2022/05/22 10:26:20;;;;;;;8.48;2.50;;;;;;;;;;4942059;28;93061;-72
2022/05/22 10:29:01;;;;;;;8.00;1.95;;;;;;;;;;4994734;28;92785;-74
2022/05/22 10:31:43;;;;;;;8.38;2.08;;;;;;;;;;5007890;28;94033;-72
2022/05/22 10:34:20;;;;;;;7.88;2.10;;;;;;;;;;5013248;28;96012;-73
2022/05/22 10:36:50;;;;;;;8.98;1.95;;;;;;;;;;5023362;28;92561;-72
2022/05/22 10:39:19;;;;;;;6.28;1.60;;;;;;;;;;5012994;28;92420;-73
2022/05/22 10:44:45;;;;;;;7.22;1.70;;;;;;;;;;5027759;28;93161;-72
2022/05/22 10:47:12;;;;;;;6.10;2.10;;;;;;;;;;4997359;28;93895;-74
2022/05/22 10:49:40;;;;;;;5.90;1.67;;;;;;;;;;5011968;28;92482;-72
2022/05/22 10:52:08;;;;;;;5.63;1.63;;;;;;;;;;5018611;28;93463;-72
2022/05/22 10:54:35;;;;;;;5.28;1.58;;;;;;;;;;5017235;28;93535;-73
2022/05/22 10:57:09;;;;;;;8.57;1.65;;;;;;;;;;5012183;28;92442;-73
2022/05/22 10:59:35;;;;;;;6.10;1.85;;;;;;;;;;5013514;28;94714;-73
2022/05/22 11:02:04;;;;;;;7.45;2.03;;;;;;;;;;5016209;28;93659;-72
2022/05/22 11:04:38;;;;;;;4.32;1.42;;;;;;;;;;5013952;28;95319;-73
2022/05/22 11:07:05;;;;;;;9.10;1.83;;;;;;;;;;5013153;28;93283;-72
2022/05/22 11:09:33;;;;;;;7.63;1.42;;;;;;;;;;5024003;28;92550;-73
2022/05/22 11:12:10;;;;;;;6.75;1.83;;;;;;;;;;5016794;28;93547;-72
2022/05/22 11:14:36;;;;;;;8.07;1.55;;;;;;;;;;5011306;28;93627;-72
2022/05/22 11:17:15;;;;;;;9.43;1.90;;;;;;;;;;5013549;28;91761;-73
2022/05/22 11:19:42;;;;;;;10.93;2.17;;;;;;;;;;4996663;28;92568;-73
2022/05/22 11:22:29;;;;;;;8.85;2.40;;;;;;;;;;5012132;28;93390;-72
2022/05/22 11:24:56;;;;;;;8.88;2.33;;;;;;;;;;5016005;28;94814;-71
2022/05/22 11:27:41;;;;;;;7.95;2.20;;;;;;;;;;5013567;28;94293;-70
2022/05/22 11:30:10;;;;;;;4.32;1.85;;;;;;;;;;5016892;28;92337;-71
2022/05/22 11:32:39;;;;;;;5.22;2.10;;;;;;;;;;5016934;28;93515;-72
2022/05/22 11:35:26;;;;;;;10.93;2.13;;;;;;;;;;5016145;28;93199;-71
2022/05/22 11:38:00;;;;;;;9.20;2.25;;;;;;;;;;5017528;28;92496;-70
2022/05/22 11:40:45;;;;;;;7.45;2.75;;;;;;;;;;5013971;28;93212;-72
2022/05/22 11:43:18;;;;;;;5.30;1.90;;;;;;;;;;5013882;28;92691;-72
2022/05/22 11:46:04;;;;;;;6.28;1.80;;;;;;;;;;5017345;28;92487;-72
2022/05/22 11:48:39;;;;;;;6.05;1.50;;;;;;;;;;5011252;28;93616;-72
2022/05/22 11:51:18;;;;;;;15.30;1.85;;;;;;;;;;4997721;28;94922;-72
2022/05/22 11:53:44;;;;;;;10.95;2.25;;;;;;;;;;5015860;28;96707;-73
2022/05/22 11:56:28;;;;;;;8.40;2.03;;;;;;;;;;5015642;28;93473;-71
2022/05/22 11:59:00;;;;;;;6.22;1.95;;;;;;;;;;4998360;28;92511;-72
2022/05/22 12:01:38;;;;;;;7.85;2.30;;;;;;;;;;4999379;28;92990;-72
2022/05/22 12:04:04;;;;;;;5.70;1.50;;;;;;;;;;4999342;28;93833;-72
2022/05/22 12:06:31;;;;;;;7.85;1.90;;;;;;;;;;5015919;28;92478;-72
2022/05/22 12:09:06;;;;;;;4.70;1.95;;;;;;;;;;5018537;28;93142;-72
2022/05/22 12:11:35;;;;;;;8.98;2.53;;;;;;;;;;4997235;28;92537;-72
2022/05/22 12:14:21;;;;;;;6.55;1.88;;;;;;;;;;5014397;28;93959;-72
2022/05/22 12:16:59;;;;;;;9.82;2.22;;;;;;;;;;5014333;28;95820;-70
2022/05/22 12:19:39;;;;;;;6.15;1.83;;;;;;;;;;5015208;28;92430;-70
2022/05/22 12:22:16;;;;;;;9.18;2.38;;;;;;;;;;5016144;28;93271;-70
2022/05/22 12:24:48;;;;;;;7.68;2.40;;;;;;;;;;5015443;28;93419;-70
2022/05/22 12:27:20;;;;;;;13.65;2.80;;;;;;;;;;5016824;28;92477;-71
2022/05/22 12:29:51;;;;;;;6.97;2.45;;;;;;;;;;5012803;28;93581;-70
2022/05/22 12:32:17;;;;;;;;;;;;;;;;;;5006189;28;93345;-70
2022/05/22 12:34:45;;;;;;;5.70;2.70;;;;;;;;;;5018239;28;123784;-70
2022/05/22 12:37:18;;;;;;;7.70;2.58;;;;;;;;;;5013833;28;93242;-70
2022/05/22 12:39:50;;;;;;;6.80;2.50;;;;;;;;;;4995462;28;92483;-71
2022/05/22 12:42:21;;;;;;;10.80;2.78;;;;;;;;;;5014291;28;94847;-70
2022/05/22 12:44:48;;;;;;;7.75;2.92;;;;;;;;;;4995798;28;93543;-70
2022/05/22 12:47:15;;;;;;;13.18;3.10;;;;;;;;;;4996025;28;93339;-71
2022/05/22 12:49:52;;;;;;;13.30;3.90;;;;;;;;;;5015861;28;93459;-70
2022/05/22 12:52:24;;;;;;;13.43;3.97;;;;;;;;;;5015649;28;93585;-70
2022/05/22 12:54:57;;;;;;;7.68;2.42;;;;;;;;;;5015621;28;92792;-70
2022/05/22 12:57:24;;;;;;;9.48;3.47;;;;;;;;;;4973527;28;93363;-72
2022/05/22 12:59:58;;;;;;;9.38;3.47;;;;;;;;;;5016286;28;91756;-70
2022/05/22 13:02:35;;;;;;;8.48;3.22;;;;;;;;;;4997730;28;92674;-70
2022/05/22 13:05:02;;;;;;;8.48;3.08;;;;;;;;;;5015037;28;94733;-71
2022/05/22 13:07:33;;;;;;;17.25;3.70;;;;;;;;;;4992632;28;94907;-72
2022/05/22 13:10:10;;;;;;;11.52;3.20;;;;;;;;;;5014090;28;95579;-71
2022/05/22 13:12:38;;;;;;;9.90;3.63;;;;;;;;;;5015728;28;93261;-71
2022/05/22 13:15:04;;;;;;;10.75;3.78;;;;;;;;;;4997517;28;92468;-72
2022/05/22 13:17:33;;;;;;;10.25;3.70;;;;;;;;;;5016485;28;93196;-73
2022/05/22 13:20:02;;;;;;;10.60;3.65;;;;;;;;;;4981688;28;92424;-72
2022/05/22 13:22:30;;;;;;;5.28;2.85;;;;;;;;;;5013080;28;93194;-72
2022/05/22 13:24:56;;;;;;;6.80;3.10;;;;;;;;;;5015584;28;94555;-71
2022/05/22 13:27:31;;;;;;;9.05;3.40;;;;;;;;;;5015270;28;92548;-72
2022/05/22 13:30:07;;;;;;;10.43;3.40;;;;;;;;;;5014620;28;93079;-73
2022/05/22 13:32:41;;;;;;;6.43;2.72;;;;;;;;;;4995390;28;95854;-71
2022/05/22 13:35:12;;;;;;;10.48;3.35;;;;;;;;;;4996935;28;92448;-70
2022/05/22 13:37:43;;;;;;;12.20;2.95;;;;;;;;;;5008740;28;93039;-70
2022/05/22 13:40:12;;;;;;;13.68;3.20;;;;;;;;;;5018240;28;93459;-71
2022/05/22 13:43:01;;;;;;;18.25;3.85;;;;;;;;;;4997370;28;93641;-71
2022/05/22 13:45:28;;;;;;;13.70;3.55;;;;;;;;;;5011833;28;93510;-70
2022/05/22 13:48:08;;;;;;;11.82;3.50;;;;;;;;;;4980891;28;92550;-71
2022/05/22 13:53:31;;;;;;;9.13;3.03;;;;;;;;;;5014644;28;93423;-70
2022/05/22 13:55:57;;;;;;;5.55;3.13;;;;;;;;;;5013739;28;92408;-71
2022/05/22 13:58:27;;;;;;;12.93;4.05;;;;;;;;;;5013518;28;95097;-72
2022/05/22 14:00:55;;;;;;;8.90;3.72;;;;;;;;;;5018364;28;93650;-72
2022/05/22 14:03:45;;;;;;;8.93;3.50;;;;;;;;;;4997603;28;93464;-72
2022/05/22 14:06:14;;;;;;;6.28;2.72;;;;;;;;;;5003379;28;93211;-72
2022/05/22 14:08:47;;;;;;;10.98;3.47;;;;;;;;;;5013362;28;92498;-72
2022/05/22 14:11:18;;;;;;;12.25;3.33;;;;;;;;;;5014286;28;93201;-70
2022/05/22 14:13:53;;;;;;;7.15;2.53;;;;;;;;;;5011497;28;93813;-70
2022/05/22 14:16:20;;;;;;;7.53;2.83;;;;;;;;;;5014046;28;92282;-71
2022/05/22 14:18:55;;;;;;;8.55;3.50;;;;;;;;;;5014064;28;92472;-70
2022/05/22 14:21:23;;;;;;;11.88;3.15;;;;;;;;;;5013240;28;93494;-71
2022/05/22 14:26:38;;;;;;;10.70;3.85;;;;;;;;;;5013887;28;93644;-71
2022/05/22 14:29:06;;;;;;;5.97;2.80;;;;;;;;;;5014107;28;92388;-71
2022/05/22 14:31:39;;;;;;;12.00;3.88;;;;;;;;;;5013747;28;94361;-71
2022/05/22 14:34:06;;;;;;;14.00;4.28;;;;;;;;;;4995728;28;92545;-70
2022/05/22 14:36:33;;;;;;;10.63;3.60;;;;;;;;;;5014412;28;92338;-71
2022/05/22 14:39:00;;;;;;;11.27;3.95;;;;;;;;;;5014478;28;94240;-70
2022/05/22 14:41:31;;;;;;;10.30;3.50;;;;;;;;;;5012755;28;94848;-71
2022/05/22 14:44:02;;;;;;;14.80;3.35;;;;;;;;;;5015385;28;92573;-70
2022/05/22 14:46:40;;;;;;;8.25;3.83;;;;;;;;;;5017440;28;93250;-70
2022/05/22 14:49:18;;;;;;;9.00;3.35;;;;;;;;;;5012806;28;94901;-70
2022/05/22 14:51:50;;;;;;;10.38;3.80;;;;;;;;;;4993917;28;95747;-71
2022/05/22 14:54:23;;;;;;;9.85;3.47;;;;;;;;;;4995981;28;93457;-72
2022/05/22 14:56:56;;;;;;;11.88;3.78;;;;;;;;;;5011573;28;92534;-70
2022/05/22 14:59:31;;;;;;;9.43;4.25;;;;;;;;;;5013124;28;93312;-71
2022/05/22 15:01:57;;;;;;;13.25;3.65;;;;;;;;;;5012525;28;93360;-71
2022/05/22 15:04:26;;;;;;;9.10;3.92;;;;;;;;;;4996872;28;92808;-70
2022/05/22 15:07:01;;;;;;;13.68;6.00;;;;;;;;;;5015575;28;94471;-71
2022/05/22 15:09:32;;;;;;;11.57;5.40;;;;;;;;;;5019911;28;93632;-70
2022/05/22 15:12:07;;;;;;;11.38;4.03;;;;;;;;;;5016048;28;93164;-70